Mc Veytown, Pennsylvania
Current Conditions -  °F | °C
As of 11:53 AM on Saturday 25 Oct 2014 (Local Time) from KUNV Reporting Station
Scattered Clouds Scattered Clouds  
Wind Chill: 16°   Ceiling: Unl
Heat Index: 16°   Visibility: 10mi
Dew Point:   Wind: 17mph
Humidity: 55%   Direction: 260°W
Pressure: 29.85"   Gusts: 23mph
Location:  40.5138°N, 77.7384°W
Report Text: KUNV 251553Z 26015G20KT 10SM SCT045 16/07 A2985
Loading
Personal Weather Stations






























Interactive Weather Map
Tropical Storm Tracking
New forecast layout! Learn more

10-Day Weather Forecast

Advertisements
Track Severe Weather on mobile